Cookstown, New Jersey
Current Conditions -  °F | °C
As of 2:58 PM on Sunday 23 Nov 2014 (Local Time) from KWRI Reporting Station
Clear Clear  
Wind Chill: 56°   Ceiling: Unl
Heat Index: 56°   Visibility: 10mi
Dew Point: 26°   Wind: 6mph
Humidity: 32%   Direction: 210°SSW
Pressure: 30.12"   Gusts: NA
Location:  40.05°N, 74.56°W
Report Text: KWRI 231958Z AUTO 21005KT 10SM CLR 14/M03 A3012 RMK AO2 SLP203 T01351031
Loading
Personal Weather Stations






























Interactive Weather Map New forecast layout! Learn more

10-Day Weather Forecast

Advertisements
Track Severe Weather on mobile